Time;durP1;ratioP1;P1;durP2;ratioP2;P2;SDS_P1;SDS_P2;PMS_P1;PMS_P2;Temp;Humidity;BMP_temperature;BMP_pressure;BME280_temperature;BME280_humidity;BME280_pressure;Samples;Min_cycle;Max_cycle;Signal;HPM_P1;HPM_P2
2023/11/16 00:02:45;;;;;;;13.93;3.10;;;12.60;60.90;;;;;;6098896;29;20027;-75
2023/11/16 00:05:48;;;;;;;8.80;2.38;;;12.60;60.90;;;;;;6114212;29;20040;-75
2023/11/16 00:08:51;;;;;;;12.43;3.85;;;12.60;60.90;;;;;;6114057;29;20164;-75
2023/11/16 00:11:55;;;;;;;15.57;2.90;;;12.70;60.90;;;;;;6099184;29;20477;-75
2023/11/16 00:14:58;;;;;;;6.53;2.50;;;12.70;60.80;;;;;;6086116;29;20071;-76
2023/11/16 00:18:02;;;;;;;11.20;2.65;;;12.80;60.90;;;;;;6099671;29;20494;-75
2023/11/16 00:21:06;;;;;;;13.35;4.03;;;12.80;60.90;;;;;;6082538;29;20036;-75
2023/11/16 00:24:11;;;;;;;7.18;2.92;;;12.80;60.80;;;;;;6099985;29;20036;-74
2023/11/16 00:27:18;;;;;;;8.85;2.88;;;12.90;60.90;;;;;;6082574;29;20092;-74
2023/11/16 00:30:21;;;;;;;8.48;2.47;;;12.90;60.80;;;;;;6081652;29;20063;-74
2023/11/16 00:33:23;;;;;;;8.20;2.17;;;13.00;60.70;;;;;;6082198;29;20184;-76
2023/11/16 00:36:25;;;;;;;14.27;2.47;;;13.00;60.40;;;;;;6099057;29;20047;-75
2023/11/16 00:39:28;;;;;;;4.40;1.33;;;13.10;60.20;;;;;;6085802;29;20028;-76
2023/11/16 00:42:30;;;;;;;3.85;1.60;;;13.10;59.80;;;;;;6068682;29;20040;-75
2023/11/16 00:45:33;;;;;;;4.97;1.70;;;13.10;59.50;;;;;;6101025;29;20042;-75
2023/11/16 00:48:42;;;;;;;5.70;1.55;;;13.10;59.20;;;;;;6099391;29;20193;-75
2023/11/16 00:51:51;;;;;;;3.35;1.88;;;13.10;59.10;;;;;;6097055;29;20128;-75
2023/11/16 00:54:53;;;;;;;;;;;13.10;59.00;;;;;;6098622;29;20028;-74
2023/11/16 00:57:57;;;;;;;10.10;1.55;;;13.10;58.90;;;;;;6097872;29;19977;-74
2023/11/16 01:01:00;;;;;;;5.75;1.70;;;13.10;58.70;;;;;;6097378;29;20039;-75
2023/11/16 01:04:03;;;;;;;1.35;1.20;;;13.10;58.70;;;;;;6081107;29;20036;-74
2023/11/16 01:07:08;;;;;;;4.30;1.90;;;13.10;58.80;;;;;;6098298;29;20036;-74
2023/11/16 01:10:18;;;;;;;2.97;1.40;;;13.20;58.80;;;;;;6098547;29;20114;-74
2023/11/16 01:13:28;;;;;;;7.50;1.85;;;13.20;59.20;;;;;;6097637;29;20074;-75
2023/11/16 01:16:42;;;;;;;3.65;1.73;;;13.20;58.50;;;;;;6083350;29;20067;-75
2023/11/16 01:19:46;;;;;;;2.72;1.88;;;13.20;58.30;;;;;;6082136;29;20047;-74
2023/11/16 01:23:10;;;;;;;6.88;3.50;;;13.20;58.50;;;;;;6081314;29;20113;-75
2023/11/16 01:26:23;;;;;;;17.52;7.38;;;13.20;58.50;;;;;;6098200;29;20031;-74
2023/11/16 01:29:27;;;;;;;6.68;4.00;;;13.10;58.60;;;;;;6050507;29;20044;-74
2023/11/16 01:32:31;;;;;;;8.32;3.05;;;13.10;58.90;;;;;;6081153;29;20091;-75
2023/11/16 01:35:41;;;;;;;5.28;2.20;;;13.10;59.20;;;;;;6081171;29;20048;-74
2023/11/16 01:38:45;;;;;;;7.95;2.15;;;13.00;59.40;;;;;;6080938;29;20046;-74
2023/11/16 01:41:49;;;;;;;7.28;2.17;;;12.90;59.60;;;;;;6080512;29;20024;-74
2023/11/16 01:44:54;;;;;;;4.05;1.95;;;12.80;59.80;;;;;;6080682;29;20083;-74
2023/11/16 01:48:00;;;;;;;3.92;2.28;;;12.70;60.10;;;;;;6097744;29;20339;-74
2023/11/16 01:51:05;;;;;;;7.32;2.67;;;12.70;60.40;;;;;;6080645;29;20104;-74
2023/11/16 01:54:07;;;;;;;4.18;2.03;;;12.60;60.70;;;;;;6097589;29;20032;-75
2023/11/16 01:57:13;;;;;;;7.20;2.30;;;12.60;61.10;;;;;;6097150;29;20277;-75
2023/11/16 02:00:16;;;;;;;5.03;2.70;;;12.60;61.30;;;;;;6111583;29;20083;-75
2023/11/16 02:03:18;;;;;;;4.85;2.35;;;12.50;61.40;;;;;;6095876;29;20138;-74
2023/11/16 02:06:22;;;;;;;3.53;2.20;;;12.50;61.60;;;;;;6096485;29;20490;-75
2023/11/16 02:09:24;;;;;;;4.03;2.42;;;12.50;61.80;;;;;;6111485;29;20180;-75
2023/11/16 02:12:29;;;;;;;7.97;2.90;;;12.50;61.80;;;;;;6096279;29;20111;-75
2023/11/16 02:15:37;;;;;;;4.97;2.22;;;12.50;61.90;;;;;;6080818;29;20783;-75
2023/11/16 02:18:41;;;;;;;4.65;2.90;;;12.50;61.90;;;;;;6098502;29;20314;-74
2023/11/16 02:21:45;;;;;;;5.97;3.13;;;12.40;62.00;;;;;;6106305;29;20087;-74
2023/11/16 02:24:48;;;;;;;4.72;2.20;;;12.40;62.00;;;;;;6106765;29;20098;-76
2023/11/16 02:27:57;;;;;;;11.80;2.85;;;12.40;62.10;;;;;;6133580;29;20132;-75
2023/11/16 02:31:03;;;;;;;4.05;2.72;;;12.30;62.30;;;;;;6120402;29;20135;-75
2023/11/16 02:34:05;;;;;;;10.50;3.33;;;12.30;62.60;;;;;;6105039;29;20143;-74
2023/11/16 02:37:11;;;;;;;9.45;2.65;;;12.20;62.60;;;;;;6102621;29;20111;-76
2023/11/16 02:40:17;;;;;;;4.15;2.50;;;12.20;62.80;;;;;;6102498;29;20146;-76
2023/11/16 02:43:21;;;;;;;4.78;2.60;;;12.20;62.90;;;;;;6120304;29;20028;-74
2023/11/16 02:46:25;;;;;;;6.72;3.05;;;12.10;63.00;;;;;;6095535;29;20032;-74
2023/11/16 02:49:27;;;;;;;7.20;2.63;;;12.10;63.10;;;;;;6096636;29;20457;-75
2023/11/16 02:52:28;;;;;;;9.98;2.67;;;12.00;63.20;;;;;;6110776;29;20127;-74
2023/11/16 02:55:31;;;;;;;11.00;2.63;;;12.00;63.40;;;;;;6095603;29;20122;-75
2023/11/16 02:58:34;;;;;;;10.43;2.40;;;12.00;63.30;;;;;;6096662;29;20161;-75
2023/11/16 03:01:37;;;;;;;11.52;3.13;;;12.00;63.30;;;;;;6101925;29;20020;-75
2023/11/16 03:04:40;;;;;;;6.15;2.80;;;12.00;63.40;;;;;;6103027;29;20160;-75
2023/11/16 03:07:43;;;;;;;6.50;2.65;;;12.00;63.50;;;;;;6096871;29;20036;-75
2023/11/16 03:10:49;;;;;;;7.63;3.40;;;12.00;63.50;;;;;;6096413;29;20162;-75
2023/11/16 03:13:52;;;;;;;11.85;2.83;;;12.10;63.50;;;;;;6099600;29;20063;-75
2023/11/16 03:16:55;;;;;;;7.22;2.92;;;12.10;63.40;;;;;;6110771;29;20048;-75
2023/11/16 03:19:59;;;;;;;4.25;1.92;;;12.20;63.40;;;;;;6113237;29;20028;-76
2023/11/16 03:23:02;;;;;;;8.35;2.88;;;12.20;63.20;;;;;;6084734;29;20068;-75
2023/11/16 03:26:08;;;;;;;18.75;3.13;;;12.30;63.20;;;;;;6101028;29;20107;-75
2023/11/16 03:29:11;;;;;;;7.10;2.40;;;12.30;63.10;;;;;;6099711;29;20187;-75
2023/11/16 03:32:13;;;;;;;7.07;2.45;;;12.30;63.10;;;;;;6100197;29;20032;-75
2023/11/16 03:35:15;;;;;;;3.90;1.85;;;12.30;63.20;;;;;;6101305;29;20123;-75
2023/11/16 03:38:18;;;;;;;7.18;2.00;;;12.20;63.10;;;;;;6083828;29;20056;-74
2023/11/16 03:41:23;;;;;;;6.50;2.85;;;12.20;63.40;;;;;;6082662;29;20048;-74
2023/11/16 03:44:26;;;;;;;7.00;2.97;;;12.10;63.50;;;;;;6100516;29;20406;-75
2023/11/16 03:47:29;;;;;;;5.70;2.95;;;12.10;63.50;;;;;;6087143;29;20067;-75
2023/11/16 03:50:32;;;;;;;10.18;2.42;;;12.10;63.50;;;;;;6100562;29;20047;-75
2023/11/16 03:53:34;;;;;;;8.05;2.60;;;12.10;63.60;;;;;;6100755;29;20036;-75
2023/11/16 03:56:36;;;;;;;10.43;3.00;;;12.20;63.60;;;;;;6114484;29;20973;-75
2023/11/16 03:59:38;;;;;;;7.78;3.42;;;12.20;63.70;;;;;;6114619;29;20055;-74
2023/11/16 04:02:40;;;;;;;5.15;2.70;;;12.20;63.60;;;;;;6098379;29;20082;-74
2023/11/16 04:05:42;;;;;;;3.80;2.42;;;12.20;63.60;;;;;;6098582;29;20033;-74
2023/11/16 04:08:46;;;;;;;11.73;2.58;;;12.20;63.60;;;;;;6099967;29;20028;-74
2023/11/16 04:11:50;;;;;;;7.85;2.78;;;12.20;63.60;;;;;;6082865;29;20373;-74
2023/11/16 04:14:55;;;;;;;12.48;3.28;;;12.20;63.70;;;;;;6099959;29;20036;-74
2023/11/16 04:17:58;;;;;;;5.50;2.63;;;12.20;63.80;;;;;;6082875;29;20270;-74
2023/11/16 04:21:01;;;;;;;14.25;3.10;;;12.20;63.80;;;;;;6082708;29;20410;-75
2023/11/16 04:24:08;;;;;;;8.50;2.67;;;12.20;63.70;;;;;;6064271;29;20068;-75
2023/11/16 04:27:11;;;;;;;3.10;1.65;;;12.20;63.50;;;;;;6099780;29;20043;-75
2023/11/16 04:30:16;;;;;;;5.90;2.05;;;12.00;63.50;;;;;;6082079;29;20039;-75
2023/11/16 04:33:20;;;;;;;3.15;1.88;;;12.10;63.50;;;;;;6082259;29;20367;-74
2023/11/16 04:36:23;;;;;;;8.10;2.53;;;12.10;63.50;;;;;;6081494;29;20051;-74
2023/11/16 04:39:27;;;;;;;5.30;2.90;;;12.10;63.60;;;;;;6099238;29;20148;-75
2023/11/16 04:42:29;;;;;;;9.55;3.42;;;12.00;63.80;;;;;;6082495;29;20071;-74
2023/11/16 04:45:30;;;;;;;6.63;2.70;;;11.90;64.10;;;;;;6081848;29;20454;-74
2023/11/16 04:48:33;;;;;;;9.15;3.08;;;11.80;64.30;;;;;;6098603;29;20035;-74
2023/11/16 04:51:35;;;;;;;4.50;2.67;;;11.80;64.60;;;;;;6098711;29;20044;-75
2023/11/16 04:54:36;;;;;;;16.33;3.15;;;11.80;64.60;;;;;;6097284;29;20040;-75
2023/11/16 04:57:38;;;;;;;4.32;2.92;;;11.80;64.70;;;;;;6098838;29;20067;-76
2023/11/16 05:00:40;;;;;;;4.10;2.55;;;11.70;64.70;;;;;;6113155;29;20028;-74
2023/11/16 05:03:44;;;;;;;13.73;2.88;;;11.70;64.90;;;;;;6112713;29;20048;-75
2023/11/16 05:06:47;;;;;;;5.15;2.60;;;11.70;65.00;;;;;;6097318;29;20028;-76
2023/11/16 05:09:52;;;;;;;8.05;3.70;;;11.70;65.10;;;;;;6097185;29;20035;-75
2023/11/16 05:12:55;;;;;;;3.90;2.67;;;11.70;65.00;;;;;;6097245;29;20079;-75
2023/11/16 05:16:20;;;;;;;7.97;2.85;;;11.70;65.10;;;;;;6082000;29;20036;-75
2023/11/16 05:19:23;;;;;;;5.65;2.60;;;11.80;65.10;;;;;;6079177;29;20107;-76
2023/11/16 05:22:26;;;;;;;2.80;2.05;;;11.80;65.00;;;;;;6095038;29;20040;-75
2023/11/16 05:25:29;;;;;;;3.58;1.85;;;11.90;64.90;;;;;;6094999;29;20040;-74
2023/11/16 05:28:32;;;;;;;4.93;2.67;;;12.00;64.80;;;;;;6095155;29;20450;-74
2023/11/16 05:31:38;;;;;;;6.22;2.38;;;12.00;64.60;;;;;;6094357;29;20052;-74
2023/11/16 05:34:40;;;;;;;4.80;2.45;;;12.00;64.50;;;;;;6078848;29;20051;-75
2023/11/16 05:37:43;;;;;;;6.07;2.88;;;12.10;64.50;;;;;;6079280;29;20433;-75
2023/11/16 05:40:47;;;;;;;8.43;3.35;;;12.10;64.40;;;;;;6094356;29;20442;-75
2023/11/16 05:43:49;;;;;;;5.40;2.80;;;12.10;64.20;;;;;;6078550;29;20107;-74
2023/11/16 05:46:57;;;;;;;5.20;2.45;;;12.10;64.30;;;;;;6048761;29;20056;-74
2023/11/16 05:49:59;;;;;;;9.20;2.58;;;12.10;64.30;;;;;;6071069;29;20112;-75
2023/11/16 05:53:02;;;;;;;14.70;2.60;;;12.10;64.20;;;;;;6070707;29;20036;-74
2023/11/16 05:56:04;;;;;;;9.70;2.70;;;12.10;64.10;;;;;;6071465;29;20738;-75
2023/11/16 05:59:08;;;;;;;10.90;2.53;;;12.00;64.10;;;;;;6070979;29;20123;-75
2023/11/16 06:02:26;;;;;;;8.07;2.45;;;12.10;64.20;;;;;;6055598;29;20366;-75
2023/11/16 06:05:28;;;;;;;8.13;2.08;;;12.10;64.10;;;;;;6057143;29;20140;-76
2023/11/16 06:08:31;;;;;;;6.53;2.40;;;12.10;64.10;;;;;;6073806;29;20036;-75
2023/11/16 06:11:35;;;;;;;7.93;2.28;;;12.10;64.10;;;;;;6072932;29;20033;-76
2023/11/16 06:14:39;;;;;;;7.65;2.20;;;12.10;64.20;;;;;;6076640;29;20340;-74
2023/11/16 06:17:41;;;;;;;4.68;2.38;;;12.10;64.30;;;;;;6073434;29;20447;-75
2023/11/16 06:20:45;;;;;;;6.78;1.98;;;12.10;64.30;;;;;;6056228;29;20371;-76
2023/11/16 06:23:47;;;;;;;5.18;2.20;;;12.10;64.30;;;;;;6072372;29;20045;-76
2023/11/16 06:26:52;;;;;;;8.65;1.98;;;12.20;64.30;;;;;;6073605;29;20446;-75
2023/11/16 06:29:54;;;;;;;12.10;2.50;;;12.20;64.20;;;;;;6073994;29;20039;-73
2023/11/16 06:32:59;;;;;;;8.35;2.28;;;12.20;64.00;;;;;;6075286;29;20075;-74
2023/11/16 06:36:03;;;;;;;5.15;1.92;;;12.20;63.90;;;;;;6072731;29;20785;-75
2023/11/16 06:39:06;;;;;;;3.58;2.00;;;12.00;63.90;;;;;;6073607;29;20044;-76
2023/11/16 06:42:08;;;;;;;5.70;2.78;;;12.20;64.10;;;;;;6072176;29;20028;-76
2023/11/16 06:45:11;;;;;;;5.65;2.60;;;12.20;64.20;;;;;;6075638;29;20091;-75
2023/11/16 06:48:15;;;;;;;6.13;2.28;;;12.10;64.30;;;;;;6096584;29;20449;-76
2023/11/16 06:51:18;;;;;;;8.82;2.22;;;12.10;64.40;;;;;;6096794;29;20107;-75
2023/11/16 06:54:21;;;;;;;6.50;2.53;;;12.10;64.60;;;;;;6098650;29;20114;-75
2023/11/16 06:57:26;;;;;;;8.35;1.92;;;12.10;64.40;;;;;;6101456;29;20048;-75
2023/11/16 07:00:39;;;;;;;3.38;2.13;;;12.20;64.40;;;;;;6101415;29;20028;-76
2023/11/16 07:03:41;;;;;;;8.43;2.40;;;12.30;64.30;;;;;;6100609;29;20123;-75
2023/11/16 07:06:42;;;;;;;4.18;2.40;;;12.30;64.10;;;;;;6100765;29;20071;-76
2023/11/16 07:09:49;;;;;;;9.23;2.45;;;12.40;64.00;;;;;;6085111;29;20042;-75
2023/11/16 07:12:52;;;;;;;6.30;2.92;;;12.40;63.90;;;;;;6101493;29;20048;-77
2023/11/16 07:15:57;;;;;;;5.40;2.72;;;12.40;63.90;;;;;;6101371;29;20028;-77
2023/11/16 07:18:58;;;;;;;4.20;2.20;;;12.40;63.80;;;;;;6084489;29;20055;-75
2023/11/16 07:22:02;;;;;;;7.25;2.97;;;12.50;63.60;;;;;;6101464;29;20028;-77
2023/11/16 07:25:07;;;;;;;5.82;3.05;;;12.50;63.40;;;;;;6084244;29;20046;-76
2023/11/16 07:28:11;;;;;;;5.20;2.40;;;12.50;63.60;;;;;;6084386;29;20042;-75
2023/11/16 07:31:19;;;;;;;8.05;2.60;;;12.50;63.60;;;;;;6069192;29;20040;-74
2023/11/16 07:34:23;;;;;;;3.58;2.13;;;12.60;63.60;;;;;;6101886;29;20429;-75
2023/11/16 07:37:27;;;;;;;6.03;2.95;;;12.60;64.30;;;;;;6084063;29;20056;-75
2023/11/16 07:40:30;;;;;;;6.00;2.50;;;12.60;63.40;;;;;;6083689;29;20083;-75
2023/11/16 07:43:32;;;;;;;5.78;2.17;;;12.70;63.40;;;;;;6083856;29;20086;-75
2023/11/16 07:46:36;;;;;;;5.45;3.15;;;12.60;63.20;;;;;;6100640;29;20061;-74
2023/11/16 07:49:38;;;;;;;17.40;4.18;;;12.70;63.20;;;;;;6106131;29;20107;-75
2023/11/16 07:52:43;;;;;;;10.40;4.35;;;12.70;63.40;;;;;;6104989;29;20126;-75
2023/11/16 07:55:49;;;;;;;9.75;3.30;;;12.80;63.50;;;;;;6103139;29;20034;-75
2023/11/16 07:58:56;;;;;;;5.18;3.05;;;12.80;63.50;;;;;;6099916;29;20040;-75
2023/11/16 08:02:07;;;;;;;10.68;3.38;;;12.80;63.40;;;;;;6100021;29;20050;-75
2023/11/16 08:05:11;;;;;;;8.57;2.67;;;12.90;63.60;;;;;;6098390;29;20164;-75
2023/11/16 08:08:16;;;;;;;8.90;2.88;;;12.80;63.70;;;;;;6100213;29;20451;-74
2023/11/16 08:11:48;;;;;;;10.50;3.33;;;12.70;64.10;;;;;;6100430;29;20047;-75
2023/11/16 08:15:14;;;;;;;4.82;2.72;;;12.70;64.40;;;;;;6051289;29;20120;-75
2023/11/16 08:18:17;;;;;;;4.45;2.15;;;12.60;64.70;;;;;;6050107;29;20056;-75
2023/11/16 08:21:41;;;;;;;8.20;3.03;;;12.60;65.20;;;;;;6049553;29;20407;-76
2023/11/16 08:24:43;;;;;;;6.03;2.10;;;12.50;65.60;;;;;;6034184;29;20598;-75
2023/11/16 08:27:46;;;;;;;7.00;3.10;;;12.50;65.90;;;;;;6050951;29;20052;-75
2023/11/16 08:30:53;;;;;;;7.18;2.15;;;12.50;66.20;;;;;;6034076;29;20049;-74
2023/11/16 08:34:13;;;;;;;6.63;2.45;;;12.50;66.30;;;;;;6010993;29;20089;-75
2023/11/16 08:37:16;;;;;;;6.03;2.17;;;12.60;66.50;;;;;;6026261;29;20420;-75
2023/11/16 08:40:18;;;;;;;6.65;2.65;;;12.60;66.40;;;;;;6027825;29;20094;-76
2023/11/16 08:43:20;;;;;;;7.30;3.35;;;12.70;66.30;;;;;;6027120;29;20479;-75
2023/11/16 08:46:24;;;;;;;8.90;2.50;;;12.60;66.20;;;;;;6043210;29;20113;-76
2023/11/16 08:49:27;;;;;;;10.98;3.10;;;12.60;66.40;;;;;;6049848;29;20033;-76
2023/11/16 08:52:29;;;;;;;3.65;2.25;;;12.60;66.50;;;;;;6033542;29;20057;-74
2023/11/16 08:55:33;;;;;;;6.93;2.90;;;12.60;66.50;;;;;;6034004;29;20068;-76
2023/11/16 08:58:52;;;;;;;5.68;2.95;;;12.70;66.60;;;;;;6033572;29;20370;-75
2023/11/16 09:02:03;;;;;;;10.95;3.10;;;12.70;66.60;;;;;;6049007;29;20033;-76
2023/11/16 09:05:06;;;;;;;14.07;4.20;;;12.80;66.40;;;;;;6048924;29;20045;-77
2023/11/16 09:08:10;;;;;;;13.68;4.43;;;12.90;66.40;;;;;;6048690;29;20304;-75
2023/11/16 09:11:17;;;;;;;8.10;3.15;;;13.00;66.30;;;;;;6044391;29;20104;-75
2023/11/16 09:14:21;;;;;;;11.90;4.00;;;13.00;66.10;;;;;;6090036;29;20037;-75
2023/11/16 09:17:27;;;;;;;11.00;3.15;;;13.00;65.80;;;;;;6097812;29;20032;-75
2023/11/16 09:20:29;;;;;;;7.75;4.03;;;13.00;65.90;;;;;;6100651;29;20345;-76
2023/11/16 09:23:30;;;;;;;11.30;4.05;;;13.00;65.90;;;;;;6116667;29;20064;-75
2023/11/16 09:26:33;;;;;;;7.55;3.05;;;13.00;65.70;;;;;;6110582;29;20040;-74
2023/11/16 09:29:39;;;;;;;5.50;2.70;;;13.00;65.70;;;;;;6081138;29;20070;-75
2023/11/16 09:32:42;;;;;;;14.85;5.40;;;13.00;65.90;;;;;;6098259;29;20047;-75
2023/11/16 09:35:45;;;;;;;6.28;2.60;;;13.00;66.00;;;;;;6097281;29;20048;-76
2023/11/16 09:38:49;;;;;;;6.82;2.55;;;13.00;65.90;;;;;;6097784;29;20083;-76
2023/11/16 09:41:54;;;;;;;5.35;1.65;;;13.00;65.90;;;;;;6080097;29;20044;-75
2023/11/16 09:45:02;;;;;;;5.50;1.38;;;13.00;65.80;;;;;;6097964;29;20114;-76
2023/11/16 09:48:10;;;;;;;11.38;3.03;;;13.20;65.70;;;;;;6070820;29;20055;-75
2023/11/16 09:51:14;;;;;;;8.10;3.83;;;13.30;65.50;;;;;;6074655;29;20064;-76
2023/11/16 09:54:24;;;;;;;15.93;2.53;;;13.30;65.50;;;;;;6058232;29;20607;-76
2023/11/16 09:57:27;;;;;;;11.02;4.15;;;13.40;65.20;;;;;;6072433;29;20308;-76
2023/11/16 10:00:32;;;;;;;12.40;3.85;;;13.40;65.10;;;;;;6072491;29;20033;-75
2023/11/16 10:03:48;;;;;;;6.03;2.47;;;13.50;65.00;;;;;;6073332;29;20048;-75
2023/11/16 10:06:57;;;;;;;6.80;2.30;;;13.60;64.90;;;;;;6056875;29;20032;-75
2023/11/16 10:10:09;;;;;;;6.78;1.45;;;13.60;65.50;;;;;;6073450;29;20686;-77
2023/11/16 10:13:12;;;;;;;3.10;1.30;;;13.70;64.40;;;;;;6079834;29;20036;-77
2023/11/16 10:16:16;;;;;;;2.05;1.38;;;13.70;64.20;;;;;;6096094;29;20540;-75
2023/11/16 10:19:21;;;;;;;18.15;6.38;;;13.70;64.20;;;;;;6097426;29;20067;-75
2023/11/16 10:22:24;;;;;;;6.20;2.58;;;13.80;64.40;;;;;;6096491;29;20103;-76
2023/11/16 10:25:26;;;;;;;8.32;2.78;;;13.80;64.40;;;;;;6096506;29;20429;-76
2023/11/16 10:28:34;;;;;;;13.57;5.53;;;13.80;64.40;;;;;;6096138;29;20028;-75
2023/11/16 10:31:37;;;;;;;17.42;4.45;;;13.80;64.50;;;;;;6080256;29;20203;-76
2023/11/16 10:34:40;;;;;;;13.48;3.50;;;13.80;64.60;;;;;;6096267;29;20401;-77
2023/11/16 10:37:46;;;;;;;17.15;6.35;;;13.90;64.70;;;;;;6096436;29;20080;-76
2023/11/16 10:40:51;;;;;;;3.22;1.63;;;13.90;64.80;;;;;;6079796;29;20032;-76
2023/11/16 10:43:56;;;;;;;5.95;1.77;;;14.00;64.60;;;;;;6096739;29;20067;-76
2023/11/16 10:47:07;;;;;;;6.07;2.78;;;14.10;64.50;;;;;;6079730;29;20154;-75
2023/11/16 10:50:15;;;;;;;1.92;1.35;;;14.20;64.30;;;;;;6080972;29;20176;-75
2023/11/16 10:53:31;;;;;;;7.40;2.00;;;14.30;64.20;;;;;;6080250;29;20036;-76
2023/11/16 10:56:36;;;;;;;2.38;1.35;;;14.30;64.00;;;;;;6094854;29;20493;-76
2023/11/16 10:59:47;;;;;;;5.68;1.33;;;14.40;64.00;;;;;;6096154;29;20048;-76
2023/11/16 11:02:49;;;;;;;4.78;1.85;;;14.40;63.90;;;;;;6064402;29;20100;-77
2023/11/16 11:05:52;;;;;;;5.68;1.88;;;14.50;63.80;;;;;;6095984;29;20144;-76
2023/11/16 11:08:59;;;;;;;9.63;2.10;;;14.60;63.40;;;;;;6078896;29;20108;-75
2023/11/16 11:12:05;;;;;;;9.20;2.20;;;14.60;64.20;;;;;;6079329;29;20055;-76
2023/11/16 11:15:07;;;;;;;9.45;3.55;;;14.70;63.40;;;;;;6078484;29;20790;-76
2023/11/16 11:18:24;;;;;;;16.27;4.20;;;14.60;63.60;;;;;;6078869;29;20044;-75
2023/11/16 11:21:28;;;;;;;9.10;2.25;;;14.50;64.20;;;;;;6079460;29;20036;-76
2023/11/16 11:24:45;;;;;;;14.15;3.25;;;14.50;64.70;;;;;;6096157;29;20042;-75
2023/11/16 11:27:51;;;;;;;14.05;4.13;;;14.50;65.10;;;;;;6079596;29;20047;-75
2023/11/16 11:31:04;;;;;;;6.57;3.42;;;14.50;65.30;;;;;;6096224;29;20028;-75
2023/11/16 11:34:11;;;;;;;12.38;2.53;;;14.60;65.50;;;;;;6096060;29;20056;-75
2023/11/16 11:37:14;;;;;;;4.90;1.73;;;14.70;65.30;;;;;;6096696;29;20091;-77
2023/11/16 11:40:24;;;;;;;5.72;1.65;;;14.70;65.20;;;;;;6098120;29;20126;-75
2023/11/16 11:43:27;;;;;;;2.75;1.27;;;14.80;65.30;;;;;;6084654;29;20071;-76
2023/11/16 11:46:29;;;;;;;1.20;1.10;;;15.00;65.00;;;;;;6087750;29;20035;-75
2023/11/16 11:49:34;;;;;;;2.80;1.48;;;15.20;64.60;;;;;;6098997;29;20127;-76
2023/11/16 11:52:39;;;;;;;4.45;1.70;;;15.30;64.00;;;;;;6099995;29;20056;-75
2023/11/16 11:55:45;;;;;;;2.30;1.00;;;15.40;63.90;;;;;;6099501;29;20040;-76
2023/11/16 11:58:46;;;;;;;4.18;2.17;;;15.50;63.60;;;;;;6099897;29;20616;-75
2023/11/16 12:01:50;;;;;;;3.15;1.98;;;15.50;63.60;;;;;;6099676;29;20103;-74
2023/11/16 12:04:53;;;;;;;5.68;1.88;;;15.60;63.60;;;;;;6100133;29;20040;-76
2023/11/16 12:07:58;;;;;;;8.93;1.77;;;15.70;63.60;;;;;;6101555;29;20032;-76
2023/11/16 12:11:10;;;;;;;4.65;1.98;;;15.90;62.70;;;;;;6084518;29;20032;-77
2023/11/16 12:14:14;;;;;;;5.47;1.73;;;16.00;62.50;;;;;;6101289;29;20759;-74
2023/11/16 12:17:21;;;;;;;15.27;4.03;;;16.20;62.40;;;;;;6103588;29;20180;-75
2023/11/16 12:20:27;;;;;;;10.57;2.75;;;16.30;62.00;;;;;;6111496;29;20032;-75
2023/11/16 12:23:31;;;;;;;4.30;2.42;;;16.40;61.10;;;;;;6102551;29;20084;-74
2023/11/16 12:26:34;;;;;;;8.32;1.73;;;16.60;61.10;;;;;;6083792;29;20115;-75
2023/11/16 12:29:36;;;;;;;3.17;1.70;;;16.80;61.00;;;;;;6083175;29;20046;-77
2023/11/16 12:32:40;;;;;;;0.80;0.75;;;17.00;61.40;;;;;;6083179;29;20512;-77
2023/11/16 12:35:43;;;;;;;3.20;1.13;;;17.10;59.80;;;;;;6100379;29;20087;-76
2023/11/16 12:38:46;;;;;;;1.58;0.90;;;17.20;59.30;;;;;;6082497;29;20044;-76
2023/11/16 12:42:09;;;;;;;3.03;1.10;;;17.30;58.90;;;;;;6082090;29;20036;-75
2023/11/16 12:45:13;;;;;;;3.28;1.02;;;17.50;58.80;;;;;;6099099;29;20134;-76
2023/11/16 12:48:15;;;;;;;3.53;0.90;;;17.60;58.70;;;;;;6098781;29;20112;-77
2023/11/16 12:51:19;;;;;;;3.58;1.25;;;17.70;58.50;;;;;;6097491;29;20180;-76
2023/11/16 12:54:22;;;;;;;7.25;1.70;;;17.80;58.30;;;;;;6102002;29;20028;-75
2023/11/16 12:57:25;;;;;;;7.30;1.23;;;17.90;58.10;;;;;;6102032;29;20044;-75
2023/11/16 13:00:29;;;;;;;1.27;0.85;;;17.80;57.70;;;;;;6099709;29;20032;-75
2023/11/16 13:03:33;;;;;;;3.67;1.25;;;17.70;58.30;;;;;;6098047;29;20091;-74
2023/11/16 13:06:37;;;;;;;2.00;1.38;;;17.70;57.80;;;;;;6098010;29;20091;-75
2023/11/16 13:09:40;;;;;;;3.72;1.75;;;17.60;57.70;;;;;;6112811;29;20052;-76
2023/11/16 13:12:44;;;;;;;1.95;1.20;;;17.60;57.90;;;;;;6113275;29;20031;-76
2023/11/16 13:15:47;;;;;;;4.80;1.75;;;17.60;58.30;;;;;;6081755;29;20063;-75
2023/11/16 13:18:52;;;;;;;7.50;2.42;;;17.30;58.40;;;;;;6082043;29;20403;-75
2023/11/16 13:21:54;;;;;;;7.13;2.40;;;17.10;59.00;;;;;;6080881;29;20433;-75
2023/11/16 13:24:56;;;;;;;3.90;2.28;;;16.90;59.30;;;;;;6065460;29;20322;-76
2023/11/16 13:27:59;;;;;;;10.48;2.20;;;16.80;59.60;;;;;;6080994;29;20440;-74
2023/11/16 13:31:06;;;;;;;4.25;1.48;;;16.70;59.90;;;;;;6080381;29;20099;-75
2023/11/16 13:34:09;;;;;;;2.17;1.40;;;16.50;60.00;;;;;;6097700;29;20107;-77
2023/11/16 13:37:12;;;;;;;6.82;1.35;;;16.40;60.40;;;;;;6080385;29;20055;-74
2023/11/16 13:40:13;;;;;;;5.10;1.30;;;16.40;60.90;;;;;;6080665;29;20032;-76
2023/11/16 13:43:17;;;;;;;4.10;1.95;;;16.30;61.20;;;;;;6080331;29;20099;-76
2023/11/16 13:46:20;;;;;;;5.35;2.10;;;16.30;61.50;;;;;;6082962;29;20080;-76
2023/11/16 13:49:21;;;;;;;2.63;1.48;;;16.30;61.80;;;;;;6112031;29;20036;-76
2023/11/16 13:52:23;;;;;;;5.60;2.15;;;16.20;62.00;;;;;;6096969;29;20047;-76
2023/11/16 13:55:25;;;;;;;3.65;1.20;;;16.20;62.20;;;;;;6095999;29;20075;-76
2023/11/16 13:58:26;;;;;;;2.78;1.23;;;16.20;62.20;;;;;;6097090;29;20044;-76
2023/11/16 14:01:29;;;;;;;2.10;1.00;;;16.30;61.90;;;;;;6095628;29;20059;-76
2023/11/16 14:04:32;;;;;;;3.10;0.90;;;16.30;61.90;;;;;;6079600;29;20163;-76
2023/11/16 14:07:38;;;;;;;6.15;1.27;;;16.30;62.00;;;;;;6095981;29;20036;-76
2023/11/16 14:10:40;;;;;;;1.73;0.60;;;16.40;61.80;;;;;;6095839;29;20044;-75
2023/11/16 14:13:45;;;;;;;4.32;1.60;;;16.50;61.30;;;;;;6087903;29;20605;-75
2023/11/16 14:16:49;;;;;;;3.47;0.90;;;16.50;61.20;;;;;;6087633;29;20123;-76
2023/11/16 14:19:53;;;;;;;2.30;1.05;;;16.60;61.20;;;;;;6073730;29;20438;-75
2023/11/16 14:22:54;;;;;;;3.30;1.10;;;16.70;61.20;;;;;;6072054;29;20146;-78
2023/11/16 14:25:57;;;;;;;3.47;1.05;;;16.70;61.30;;;;;;6072052;29;20060;-76
2023/11/16 14:28:59;;;;;;;4.97;1.35;;;16.70;61.30;;;;;;6103149;29;20043;-76
2023/11/16 14:32:00;;;;;;;11.48;1.83;;;16.70;61.30;;;;;;6072815;29;20116;-76
2023/11/16 14:35:05;;;;;;;3.80;1.02;;;16.80;61.30;;;;;;6072554;29;20024;-76
2023/11/16 14:38:07;;;;;;;3.03;1.13;;;16.80;61.10;;;;;;6072830;29;20151;-76
2023/11/16 14:41:07;;;;;;;4.78;1.08;;;16.90;61.10;;;;;;6072612;29;20575;-75
2023/11/16 14:44:17;;;;;;;2.70;0.80;;;16.90;61.00;;;;;;6071901;29;20036;-74
2023/11/16 14:47:20;;;;;;;1.80;0.75;;;17.00;60.60;;;;;;6090764;29;20141;-76
2023/11/16 14:50:25;;;;;;;1.65;0.80;;;17.10;60.50;;;;;;6096202;29;20725;-75
2023/11/16 14:53:27;;;;;;;4.90;1.50;;;17.20;60.10;;;;;;6096146;29;20486;-75
2023/11/16 14:56:28;;;;;;;0.93;0.57;;;17.20;59.80;;;;;;6096205;29;20737;-75
2023/11/16 14:59:31;;;;;;;0.93;0.35;;;17.30;59.30;;;;;;6095922;29;20145;-75
2023/11/16 15:02:32;;;;;;;1.25;0.70;;;17.40;59.20;;;;;;6096373;29;20024;-75
2023/11/16 15:05:36;;;;;;;2.47;0.70;;;17.50;59.10;;;;;;6095076;29;20423;-75
2023/11/16 15:08:40;;;;;;;0.68;0.50;;;17.60;59.00;;;;;;6096563;29;20063;-76
2023/11/16 15:11:42;;;;;;;2.00;0.95;;;17.60;58.90;;;;;;6096024;29;20032;-76
2023/11/16 15:14:44;;;;;;;2.15;0.80;;;17.60;58.80;;;;;;6086129;29;20032;-75
2023/11/16 15:17:46;;;;;;;2.72;0.63;;;17.60;58.60;;;;;;6100993;29;20409;-75
2023/11/16 15:20:50;;;;;;;1.65;0.65;;;17.60;58.40;;;;;;6082824;29;20059;-74
2023/11/16 15:23:53;;;;;;;5.28;1.00;;;17.60;58.30;;;;;;6100385;29;20111;-76
2023/11/16 15:26:55;;;;;;;1.17;0.85;;;17.60;58.30;;;;;;6082757;29;20110;-79
2023/11/16 15:29:56;;;;;;;0.45;0.35;;;17.60;58.30;;;;;;6100539;29;20313;-76
2023/11/16 15:33:01;;;;;;;1.00;0.60;;;17.70;58.10;;;;;;6083052;29;20036;-76
2023/11/16 15:36:04;;;;;;;2.92;0.63;;;17.70;58.10;;;;;;6083255;29;20040;-76
2023/11/16 15:39:10;;;;;;;1.77;0.93;;;17.70;58.10;;;;;;6083786;29;20051;-76
2023/11/16 15:42:12;;;;;;;2.05;0.77;;;17.60;58.20;;;;;;6100413;29;20106;-75
2023/11/16 15:45:17;;;;;;;5.50;0.80;;;17.60;58.20;;;;;;6100215;29;20050;-75
2023/11/16 15:48:29;;;;;;;0.63;0.60;;;17.60;58.10;;;;;;6100505;29;20095;-74
2023/11/16 15:51:32;;;;;;;1.88;0.60;;;17.60;58.00;;;;;;6099854;29;20103;-75
2023/11/16 15:54:35;;;;;;;2.03;0.82;;;17.60;57.90;;;;;;6098915;29;20087;-75
2023/11/16 15:57:38;;;;;;;1.60;0.70;;;17.60;57.80;;;;;;6099765;29;20075;-75
2023/11/16 16:00:42;;;;;;;1.48;0.90;;;17.60;57.80;;;;;;6099946;29;20102;-76